»·PEaware :: N8092H KSNA-KAVX

N8092H :: KSNA-KAVX

FLIGHT INFORMATION

Flight Status: Arrived
Operator: Privately registered:
United States
More flights under this callsign
Pilot: Mark B. (9455)
Aircraft: CESSNA 172 SKYHAWK
(C172)
More flights by this aircraft type
Origin: KSNA John Wayne-Orange Co
United States
Destination: KAVX Catalina
United States
More flights between these airports :: More routes between these airports
Route: SLI V21 SXC
File this flight plan on PilotEdge
Remarks: I7
Altitude:
(Current/Filed)
4,000ft
Speed:
(Current/Filed)
115kts
Departed: 15-Feb-17 05:03 PM
Arrived: 15-Feb-17 05:35 PM
Distance/Time
Traveled:
32nm/0:32
Distance/Time
To Go:
Arrived

Flight Plot

Page will automatically refresh every two minutes.


Map Options




Map Legend


Flown Route
Filed Route
Departure Airport
Arrival Airport
Navaid (VOR, NDB)
Fix

Horizontal Profiles

Position Reports

Time Latitude Longitude Heading Altitude Ground
Speed
15-Feb-17 16:40 33.672480 -117.866869 210 60ft 0kts
15-Feb-17 16:41 33.672480 -117.866869 210 60ft 0kts
15-Feb-17 16:42 33.672480 -117.866869 210 60ft 0kts
15-Feb-17 16:43 33.672480 -117.866869 210 60ft 0kts
15-Feb-17 16:44 33.672480 -117.866869 210 60ft 0kts
15-Feb-17 16:45 33.672480 -117.866869 210 60ft 0kts
15-Feb-17 16:46 33.672480 -117.866869 210 60ft 0kts
15-Feb-17 16:47 33.672480 -117.866869 210 60ft 0kts
15-Feb-17 16:48 33.672480 -117.866869 210 60ft 0kts
15-Feb-17 16:49 33.672480 -117.866869 210 60ft 0kts
15-Feb-17 16:50 33.672480 -117.866869 210 60ft 0kts
15-Feb-17 16:51 33.672480 -117.866869 210 60ft 0kts
15-Feb-17 16:52 33.672480 -117.866869 210 60ft 0kts
15-Feb-17 16:53 33.672462 -117.866882 212 60ft 1kts
15-Feb-17 16:54 33.674399 -117.866903 28 60ft 24kts
15-Feb-17 16:55 33.679957 -117.863384 312 60ft 4kts
15-Feb-17 16:56 33.679974 -117.863429 284 60ft 0kts
15-Feb-17 16:57 33.679974 -117.863429 284 60ft 0kts
15-Feb-17 16:58 33.680027 -117.863633 301 60ft 0kts
15-Feb-17 16:59 33.680027 -117.863633 301 60ft 0kts
15-Feb-17 17:00 33.680027 -117.863633 301 60ft 0kts
15-Feb-17 17:01 33.680027 -117.863633 301 60ft 0kts
15-Feb-17 17:02 33.680027 -117.863633 301 60ft 0kts
15-Feb-17 17:03 33.677869 -117.865622 207 64ft 66kts
15-Feb-17 17:04 33.658067 -117.872627 192 1144ft 78kts
15-Feb-17 17:05 33.643475 -117.891008 230 2232ft 79kts
15-Feb-17 17:06 33.631770 -117.907757 229 3104ft 79kts
15-Feb-17 17:07 33.617289 -117.929415 233 3899ft 101kts
15-Feb-17 17:08 33.600198 -117.959213 236 3929ft 105kts
15-Feb-17 17:09 33.579307 -117.994564 236 3864ft 110kts
15-Feb-17 17:10 33.562258 -118.025407 235 3855ft 110kts
15-Feb-17 17:11 33.547035 -118.049872 234 3891ft 110kts
15-Feb-17 17:12 33.529206 -118.079909 237 3884ft 111kts
15-Feb-17 17:13 33.512098 -118.110369 236 3886ft 112kts
15-Feb-17 17:14 33.494480 -118.141037 232 3889ft 110kts
15-Feb-17 17:15 33.476189 -118.170815 235 3875ft 111kts
15-Feb-17 17:16 33.458183 -118.201254 235 3838ft 113kts
15-Feb-17 17:17 33.436660 -118.235790 234 3892ft 108kts
15-Feb-17 17:18 33.421166 -118.260202 232 3874ft 111kts
15-Feb-17 17:19 33.401719 -118.288840 230 3855ft 114kts
15-Feb-17 17:20 33.383097 -118.318407 232 3860ft 112kts
15-Feb-17 17:21 33.363478 -118.347039 232 3946ft 102kts
15-Feb-17 17:22 33.361775 -118.380741 289 3890ft 111kts
15-Feb-17 17:23 33.372207 -118.410146 291 3871ft 85kts
15-Feb-17 17:24 33.393250 -118.418401 7 3927ft 96kts
15-Feb-17 17:25 33.419687 -118.413529 6 3801ft 101kts
15-Feb-17 17:26 33.444310 -118.410419 3 3868ft 81kts
15-Feb-17 17:27 33.468516 -118.407536 6 3812ft 96kts
15-Feb-17 17:28 33.496103 -118.412819 319 3451ft 107kts
15-Feb-17 17:29 33.517901 -118.419890 68 3355ft 92kts
15-Feb-17 17:30 33.504102 -118.398842 166 3311ft 89kts
15-Feb-17 17:31 33.478627 -118.404178 189 2851ft 95kts
15-Feb-17 17:32 33.452620 -118.409088 190 2282ft 90kts
15-Feb-17 17:33 33.428748 -118.407392 162 2279ft 88kts
15-Feb-17 17:34 33.408859 -118.409403 242 1785ft 83kts
15-Feb-17 17:35 33.402307 -118.419782 123 1606ft 8kts
15-Feb-17 17:36 33.403690 -118.417235 58 1606ft 7kts

Navigation Log

Ident Type
Flight plan parsing failed, navigation log unavailable